sensor_id;sensor_type;location;lat;lon;timestamp;temperature;humidity
75190;HTU21D;69198;44.694;37.790;2024-02-23T00:00:25;7.70;65.92
75190;HTU21D;69198;44.694;37.790;2024-02-23T00:01:26;7.69;65.94
75190;HTU21D;69198;44.694;37.790;2024-02-23T00:02:27;7.70;66.01
75190;HTU21D;69198;44.694;37.790;2024-02-23T00:03:28;7.68;66.01
75190;HTU21D;69198;44.694;37.790;2024-02-23T00:04:29;7.70;66.03
75190;HTU21D;69198;44.694;37.790;2024-02-23T00:05:30;7.69;66.04
75190;HTU21D;69198;44.694;37.790;2024-02-23T00:06:32;7.70;66.05
75190;HTU21D;69198;44.694;37.790;2024-02-23T00:07:33;7.70;66.07
75190;HTU21D;69198;44.694;37.790;2024-02-23T00:08:34;7.72;66.11
75190;HTU21D;69198;44.694;37.790;2024-02-23T00:09:35;7.71;66.09
75190;HTU21D;69198;44.694;37.790;2024-02-23T00:10:36;7.72;66.09
75190;HTU21D;69198;44.694;37.790;2024-02-23T00:11:41;7.73;66.10
75190;HTU21D;69198;44.694;37.790;2024-02-23T00:12:45;7.72;66.11
75190;HTU21D;69198;44.694;37.790;2024-02-23T00:13:48;7.72;66.13
75190;HTU21D;69198;44.694;37.790;2024-02-23T00:14:49;7.73;66.13
75190;HTU21D;69198;44.694;37.790;2024-02-23T00:15:51;7.71;66.13
75190;HTU21D;69198;44.694;37.790;2024-02-23T00:16:52;7.73;66.16
75190;HTU21D;69198;44.694;37.790;2024-02-23T00:17:53;7.73;66.16
75190;HTU21D;69198;44.694;37.790;2024-02-23T00:18:54;7.73;66.19
75190;HTU21D;69198;44.694;37.790;2024-02-23T00:19:55;7.74;66.20
75190;HTU21D;69198;44.694;37.790;2024-02-23T00:20:56;7.74;66.20
75190;HTU21D;69198;44.694;37.790;2024-02-23T00:21:58;7.74;66.23
75190;HTU21D;69198;44.694;37.790;2024-02-23T00:22:59;7.74;66.25
75190;HTU21D;69198;44.694;37.790;2024-02-23T00:24:01;7.75;66.27
75190;HTU21D;69198;44.694;37.790;2024-02-23T00:25:02;7.76;66.30
75190;HTU21D;69198;44.694;37.790;2024-02-23T00:26:03;7.76;66.33
75190;HTU21D;69198;44.694;37.790;2024-02-23T00:27:04;7.76;66.36
75190;HTU21D;69198;44.694;37.790;2024-02-23T00:28:05;7.77;66.40
75190;HTU21D;69198;44.694;37.790;2024-02-23T00:29:06;7.78;66.43
75190;HTU21D;69198;44.694;37.790;2024-02-23T00:30:07;7.78;66.46
75190;HTU21D;69198;44.694;37.790;2024-02-23T00:31:09;7.79;66.51
75190;HTU21D;69198;44.694;37.790;2024-02-23T00:32:10;7.79;66.56
75190;HTU21D;69198;44.694;37.790;2024-02-23T00:33:11;7.81;66.62
75190;HTU21D;69198;44.694;37.790;2024-02-23T00:34:12;7.81;66.65
75190;HTU21D;69198;44.694;37.790;2024-02-23T00:35:14;7.82;66.67
75190;HTU21D;69198;44.694;37.790;2024-02-23T00:36:15;7.82;66.70
75190;HTU21D;69198;44.694;37.790;2024-02-23T00:37:16;7.82;66.73
75190;HTU21D;69198;44.694;37.790;2024-02-23T00:38:17;7.82;66.75
75190;HTU21D;69198;44.694;37.790;2024-02-23T00:39:18;7.83;66.82
75190;HTU21D;69198;44.694;37.790;2024-02-23T00:40:19;7.84;66.84
75190;HTU21D;69198;44.694;37.790;2024-02-23T00:41:20;7.84;66.86
75190;HTU21D;69198;44.694;37.790;2024-02-23T00:42:21;7.84;66.85
75190;HTU21D;69198;44.694;37.790;2024-02-23T00:43:22;7.85;66.90
75190;HTU21D;69198;44.694;37.790;2024-02-23T00:44:24;7.86;66.92
75190;HTU21D;69198;44.694;37.790;2024-02-23T00:45:25;7.85;66.96
75190;HTU21D;69198;44.694;37.790;2024-02-23T00:46:26;7.84;66.97
75190;HTU21D;69198;44.694;37.790;2024-02-23T00:47:27;7.86;67.00
75190;HTU21D;69198;44.694;37.790;2024-02-23T00:48:28;7.85;67.08
75190;HTU21D;69198;44.694;37.790;2024-02-23T00:49:29;7.84;67.12
75190;HTU21D;69198;44.694;37.790;2024-02-23T00:50:30;7.83;67.17
75190;HTU21D;69198;44.694;37.790;2024-02-23T00:51:31;7.83;67.27
75190;HTU21D;69198;44.694;37.790;2024-02-23T00:52:32;7.82;67.35
75190;HTU21D;69198;44.694;37.790;2024-02-23T00:53:34;7.81;67.41
75190;HTU21D;69198;44.694;37.790;2024-02-23T00:54:35;7.81;67.49
75190;HTU21D;69198;44.694;37.790;2024-02-23T00:55:36;7.79;67.53
75190;HTU21D;69198;44.694;37.790;2024-02-23T00:56:37;7.79;67.60
75190;HTU21D;69198;44.694;37.790;2024-02-23T00:57:38;7.78;67.65
75190;HTU21D;69198;44.694;37.790;2024-02-23T00:58:39;7.78;67.68
75190;HTU21D;69198;44.694;37.790;2024-02-23T00:59:41;7.76;67.73
75190;HTU21D;69198;44.694;37.790;2024-02-23T01:00:43;7.76;67.73
75190;HTU21D;69198;44.694;37.790;2024-02-23T01:01:45;7.75;67.75
75190;HTU21D;69198;44.694;37.790;2024-02-23T01:02:46;7.76;67.73
75190;HTU21D;69198;44.694;37.790;2024-02-23T01:03:47;7.76;67.72
75190;HTU21D;69198;44.694;37.790;2024-02-23T01:04:48;7.74;67.70
75190;HTU21D;69198;44.694;37.790;2024-02-23T01:05:49;7.75;67.68
75190;HTU21D;69198;44.694;37.790;2024-02-23T01:06:50;7.75;67.68
75190;HTU21D;69198;44.694;37.790;2024-02-23T01:07:51;7.75;67.67
75190;HTU21D;69198;44.694;37.790;2024-02-23T01:08:52;7.76;67.65
75190;HTU21D;69198;44.694;37.790;2024-02-23T01:09:53;7.76;67.65
75190;HTU21D;69198;44.694;37.790;2024-02-23T01:10:54;7.76;67.62
75190;HTU21D;69198;44.694;37.790;2024-02-23T01:11:55;7.77;67.59
75190;HTU21D;69198;44.694;37.790;2024-02-23T01:12:56;7.78;67.54
75190;HTU21D;69198;44.694;37.790;2024-02-23T01:13:58;7.77;67.49
75190;HTU21D;69198;44.694;37.790;2024-02-23T01:14:59;7.79;67.45
75190;HTU21D;69198;44.694;37.790;2024-02-23T01:16:00;7.78;67.44
75190;HTU21D;69198;44.694;37.790;2024-02-23T01:17:01;7.78;67.43
75190;HTU21D;69198;44.694;37.790;2024-02-23T01:18:03;7.81;67.38
75190;HTU21D;69198;44.694;37.790;2024-02-23T01:19:06;7.79;67.39
75190;HTU21D;69198;44.694;37.790;2024-02-23T01:20:08;7.79;67.41
75190;HTU21D;69198;44.694;37.790;2024-02-23T01:21:09;7.79;67.39
75190;HTU21D;69198;44.694;37.790;2024-02-23T01:22:10;7.81;67.37
75190;HTU21D;69198;44.694;37.790;2024-02-23T01:23:12;7.79;67.38
75190;HTU21D;69198;44.694;37.790;2024-02-23T01:24:13;7.79;67.36
75190;HTU21D;69198;44.694;37.790;2024-02-23T01:25:14;7.78;67.38
75190;HTU21D;69198;44.694;37.790;2024-02-23T01:26:16;7.78;67.40
75190;HTU21D;69198;44.694;37.790;2024-02-23T01:27:17;7.78;67.43
75190;HTU21D;69198;44.694;37.790;2024-02-23T01:28:19;7.78;67.43
75190;HTU21D;69198;44.694;37.790;2024-02-23T01:29:20;7.78;67.49
75190;HTU21D;69198;44.694;37.790;2024-02-23T01:30:22;7.77;67.57
75190;HTU21D;69198;44.694;37.790;2024-02-23T01:31:23;7.78;67.62
75190;HTU21D;69198;44.694;37.790;2024-02-23T01:32:25;7.77;67.71
75190;HTU21D;69198;44.694;37.790;2024-02-23T01:33:26;7.77;67.82
75190;HTU21D;69198;44.694;37.790;2024-02-23T01:34:27;7.76;67.91
75190;HTU21D;69198;44.694;37.790;2024-02-23T01:35:28;7.74;68.00
75190;HTU21D;69198;44.694;37.790;2024-02-23T01:36:30;7.73;68.13
75190;HTU21D;69198;44.694;37.790;2024-02-23T01:37:32;7.72;68.23
75190;HTU21D;69198;44.694;37.790;2024-02-23T01:38:33;7.70;68.36
75190;HTU21D;69198;44.694;37.790;2024-02-23T01:39:34;7.69;68.50
75190;HTU21D;69198;44.694;37.790;2024-02-23T01:40:35;7.69;68.65
75190;HTU21D;69198;44.694;37.790;2024-02-23T01:41:37;7.65;68.78
75190;HTU21D;69198;44.694;37.790;2024-02-23T01:42:38;7.64;68.95
75190;HTU21D;69198;44.694;37.790;2024-02-23T01:43:39;7.62;69.13
75190;HTU21D;69198;44.694;37.790;2024-02-23T01:44:40;7.61;69.33
75190;HTU21D;69198;44.694;37.790;2024-02-23T01:45:41;7.60;69.54
75190;HTU21D;69198;44.694;37.790;2024-02-23T01:46:43;7.61;69.71
75190;HTU21D;69198;44.694;37.790;2024-02-23T01:47:44;7.59;69.90
75190;HTU21D;69198;44.694;37.790;2024-02-23T01:48:46;7.60;70.05
75190;HTU21D;69198;44.694;37.790;2024-02-23T01:49:47;7.59;70.19
75190;HTU21D;69198;44.694;37.790;2024-02-23T01:50:48;7.59;70.32
75190;HTU21D;69198;44.694;37.790;2024-02-23T01:51:50;7.60;70.39
75190;HTU21D;69198;44.694;37.790;2024-02-23T01:52:52;7.59;70.50
75190;HTU21D;69198;44.694;37.790;2024-02-23T01:53:53;7.60;70.60
75190;HTU21D;69198;44.694;37.790;2024-02-23T01:54:55;7.60;70.71
75190;HTU21D;69198;44.694;37.790;2024-02-23T01:55:57;7.60;70.81
75190;HTU21D;69198;44.694;37.790;2024-02-23T01:57:00;7.59;70.93
75190;HTU21D;69198;44.694;37.790;2024-02-23T01:58:01;7.60;71.04
75190;HTU21D;69198;44.694;37.790;2024-02-23T01:59:03;7.59;71.16
75190;HTU21D;69198;44.694;37.790;2024-02-23T02:00:06;7.59;71.32
75190;HTU21D;69198;44.694;37.790;2024-02-23T02:01:11;7.59;71.48
75190;HTU21D;69198;44.694;37.790;2024-02-23T02:02:12;7.60;71.63
75190;HTU21D;69198;44.694;37.790;2024-02-23T02:03:13;7.59;71.72
75190;HTU21D;69198;44.694;37.790;2024-02-23T02:04:14;7.59;71.87
75190;HTU21D;69198;44.694;37.790;2024-02-23T02:05:15;7.59;72.00
75190;HTU21D;69198;44.694;37.790;2024-02-23T02:06:16;7.59;72.10
75190;HTU21D;69198;44.694;37.790;2024-02-23T02:07:18;7.59;72.23
75190;HTU21D;69198;44.694;37.790;2024-02-23T02:08:20;7.60;72.33
75190;HTU21D;69198;44.694;37.790;2024-02-23T02:09:21;7.59;72.45
75190;HTU21D;69198;44.694;37.790;2024-02-23T02:10:23;7.59;72.51
75190;HTU21D;69198;44.694;37.790;2024-02-23T02:11:23;7.60;72.60
75190;HTU21D;69198;44.694;37.790;2024-02-23T02:12:28;7.60;72.67
75190;HTU21D;69198;44.694;37.790;2024-02-23T02:13:29;7.60;72.76
75190;HTU21D;69198;44.694;37.790;2024-02-23T02:14:30;7.60;72.88
75190;HTU21D;69198;44.694;37.790;2024-02-23T02:15:33;7.60;73.01
75190;HTU21D;69198;44.694;37.790;2024-02-23T02:16:35;7.60;73.12
75190;HTU21D;69198;44.694;37.790;2024-02-23T02:17:36;7.61;73.19
75190;HTU21D;69198;44.694;37.790;2024-02-23T02:18:37;7.60;73.28
75190;HTU21D;69198;44.694;37.790;2024-02-23T02:19:38;7.60;73.35
75190;HTU21D;69198;44.694;37.790;2024-02-23T02:20:50;7.61;73.41
75190;HTU21D;69198;44.694;37.790;2024-02-23T02:21:51;7.58;73.50
75190;HTU21D;69198;44.694;37.790;2024-02-23T02:22:53;7.59;73.55
75190;HTU21D;69198;44.694;37.790;2024-02-23T02:23:54;7.61;73.61
75190;HTU21D;69198;44.694;37.790;2024-02-23T02:24:55;7.61;73.67
75190;HTU21D;69198;44.694;37.790;2024-02-23T02:25:57;7.62;73.77
75190;HTU21D;69198;44.694;37.790;2024-02-23T02:26:59;7.63;73.84
75190;HTU21D;69198;44.694;37.790;2024-02-23T02:28:00;7.63;73.90
75190;HTU21D;69198;44.694;37.790;2024-02-23T02:29:01;7.64;73.98
75190;HTU21D;69198;44.694;37.790;2024-02-23T02:30:02;7.65;74.05
75190;HTU21D;69198;44.694;37.790;2024-02-23T02:31:03;7.67;74.12
75190;HTU21D;69198;44.694;37.790;2024-02-23T02:32:05;7.65;74.17
75190;HTU21D;69198;44.694;37.790;2024-02-23T02:33:06;7.69;74.27
75190;HTU21D;69198;44.694;37.790;2024-02-23T02:34:07;7.68;74.32
75190;HTU21D;69198;44.694;37.790;2024-02-23T02:35:10;7.68;74.40
75190;HTU21D;69198;44.694;37.790;2024-02-23T02:36:11;7.69;74.49
75190;HTU21D;69198;44.694;37.790;2024-02-23T02:37:12;7.70;74.54
75190;HTU21D;69198;44.694;37.790;2024-02-23T02:38:14;7.70;74.70
75190;HTU21D;69198;44.694;37.790;2024-02-23T02:39:15;7.70;74.81
75190;HTU21D;69198;44.694;37.790;2024-02-23T02:40:16;7.70;74.91
75190;HTU21D;69198;44.694;37.790;2024-02-23T02:41:17;7.67;74.96
75190;HTU21D;69198;44.694;37.790;2024-02-23T02:42:18;7.67;75.08
75190;HTU21D;69198;44.694;37.790;2024-02-23T02:43:19;7.67;75.14
75190;HTU21D;69198;44.694;37.790;2024-02-23T02:44:20;7.65;75.23
75190;HTU21D;69198;44.694;37.790;2024-02-23T02:45:22;7.64;75.31
75190;HTU21D;69198;44.694;37.790;2024-02-23T02:46:23;7.63;75.38
75190;HTU21D;69198;44.694;37.790;2024-02-23T02:47:24;7.62;75.47
75190;HTU21D;69198;44.694;37.790;2024-02-23T02:48:25;7.60;75.54
75190;HTU21D;69198;44.694;37.790;2024-02-23T02:49:26;7.59;75.57
75190;HTU21D;69198;44.694;37.790;2024-02-23T02:50:27;7.59;75.60
75190;HTU21D;69198;44.694;37.790;2024-02-23T02:51:28;7.57;75.66
75190;HTU21D;69198;44.694;37.790;2024-02-23T02:52:29;7.57;75.69
75190;HTU21D;69198;44.694;37.790;2024-02-23T02:53:30;7.57;75.70
75190;HTU21D;69198;44.694;37.790;2024-02-23T02:54:31;7.57;75.84
75190;HTU21D;69198;44.694;37.790;2024-02-23T02:55:32;7.57;75.92
75190;HTU21D;69198;44.694;37.790;2024-02-23T02:56:33;7.58;76.00
75190;HTU21D;69198;44.694;37.790;2024-02-23T02:57:34;7.56;76.01
75190;HTU21D;69198;44.694;37.790;2024-02-23T02:58:38;7.54;76.01
75190;HTU21D;69198;44.694;37.790;2024-02-23T02:59:39;7.53;75.99
75190;HTU21D;69198;44.694;37.790;2024-02-23T03:00:40;7.52;75.99
75190;HTU21D;69198;44.694;37.790;2024-02-23T03:01:41;7.50;75.98
75190;HTU21D;69198;44.694;37.790;2024-02-23T03:02:42;7.49;75.92
75190;HTU21D;69198;44.694;37.790;2024-02-23T03:03:43;7.46;75.86
75190;HTU21D;69198;44.694;37.790;2024-02-23T03:04:50;7.46;75.76
75190;HTU21D;69198;44.694;37.790;2024-02-23T03:05:52;7.43;75.75
75190;HTU21D;69198;44.694;37.790;2024-02-23T03:06:53;7.44;75.73
75190;HTU21D;69198;44.694;37.790;2024-02-23T03:07:54;7.41;75.72
75190;HTU21D;69198;44.694;37.790;2024-02-23T03:08:55;7.41;75.69
75190;HTU21D;69198;44.694;37.790;2024-02-23T03:09:56;7.40;75.67
75190;HTU21D;69198;44.694;37.790;2024-02-23T03:10:57;7.41;75.72
75190;HTU21D;69198;44.694;37.790;2024-02-23T03:11:58;7.40;75.70
75190;HTU21D;69198;44.694;37.790;2024-02-23T03:12:59;7.39;75.67
75190;HTU21D;69198;44.694;37.790;2024-02-23T03:14:00;7.40;75.69
75190;HTU21D;69198;44.694;37.790;2024-02-23T03:15:01;7.40;75.71
75190;HTU21D;69198;44.694;37.790;2024-02-23T03:16:03;7.40;75.70
75190;HTU21D;69198;44.694;37.790;2024-02-23T03:17:04;7.39;75.71
75190;HTU21D;69198;44.694;37.790;2024-02-23T03:18:05;7.39;75.71
75190;HTU21D;69198;44.694;37.790;2024-02-23T03:19:10;7.40;75.75
75190;HTU21D;69198;44.694;37.790;2024-02-23T03:20:11;7.39;75.74
75190;HTU21D;69198;44.694;37.790;2024-02-23T03:21:12;7.40;75.80
75190;HTU21D;69198;44.694;37.790;2024-02-23T03:22:16;7.40;75.79
75190;HTU21D;69198;44.694;37.790;2024-02-23T03:23:17;7.40;75.79
75190;HTU21D;69198;44.694;37.790;2024-02-23T03:24:18;7.40;75.84
75190;HTU21D;69198;44.694;37.790;2024-02-23T03:25:19;7.41;75.86
75190;HTU21D;69198;44.694;37.790;2024-02-23T03:26:20;7.40;75.86
75190;HTU21D;69198;44.694;37.790;2024-02-23T03:27:27;7.42;75.89
75190;HTU21D;69198;44.694;37.790;2024-02-23T03:28:28;7.38;75.95
75190;HTU21D;69198;44.694;37.790;2024-02-23T03:29:30;7.38;75.98
75190;HTU21D;69198;44.694;37.790;2024-02-23T03:30:31;7.34;76.03
75190;HTU21D;69198;44.694;37.790;2024-02-23T03:31:32;7.34;76.07
75190;HTU21D;69198;44.694;37.790;2024-02-23T03:32:34;7.31;76.05
75190;HTU21D;69198;44.694;37.790;2024-02-23T03:33:38;7.29;76.11
75190;HTU21D;69198;44.694;37.790;2024-02-23T03:34:39;7.26;76.15
75190;HTU21D;69198;44.694;37.790;2024-02-23T03:35:40;7.19;76.21
75190;HTU21D;69198;44.694;37.790;2024-02-23T03:36:41;7.17;76.25
75190;HTU21D;69198;44.694;37.790;2024-02-23T03:37:42;7.12;76.33
75190;HTU21D;69198;44.694;37.790;2024-02-23T03:38:43;7.10;76.37
75190;HTU21D;69198;44.694;37.790;2024-02-23T03:39:44;7.05;76.44
75190;HTU21D;69198;44.694;37.790;2024-02-23T03:40:45;7.02;76.50
75190;HTU21D;69198;44.694;37.790;2024-02-23T03:41:46;6.98;76.57
75190;HTU21D;69198;44.694;37.790;2024-02-23T03:42:47;6.95;76.64
75190;HTU21D;69198;44.694;37.790;2024-02-23T03:43:48;6.93;76.73
75190;HTU21D;69198;44.694;37.790;2024-02-23T03:44:49;6.91;76.79
75190;HTU21D;69198;44.694;37.790;2024-02-23T03:45:51;6.90;76.83
75190;HTU21D;69198;44.694;37.790;2024-02-23T03:46:52;6.88;76.89
75190;HTU21D;69198;44.694;37.790;2024-02-23T03:47:53;6.88;76.92
75190;HTU21D;69198;44.694;37.790;2024-02-23T03:48:54;6.87;77.02
75190;HTU21D;69198;44.694;37.790;2024-02-23T03:49:56;6.87;77.05
75190;HTU21D;69198;44.694;37.790;2024-02-23T03:50:57;6.87;77.08
75190;HTU21D;69198;44.694;37.790;2024-02-23T03:51:58;6.88;77.03
75190;HTU21D;69198;44.694;37.790;2024-02-23T03:52:59;6.90;77.04
75190;HTU21D;69198;44.694;37.790;2024-02-23T03:54:00;6.93;77.04
75190;HTU21D;69198;44.694;37.790;2024-02-23T03:55:02;6.91;76.99
75190;HTU21D;69198;44.694;37.790;2024-02-23T03:56:04;6.94;77.02
75190;HTU21D;69198;44.694;37.790;2024-02-23T03:57:05;6.96;77.05
75190;HTU21D;69198;44.694;37.790;2024-02-23T03:58:06;6.99;77.06
75190;HTU21D;69198;44.694;37.790;2024-02-23T03:59:08;7.00;77.07
75190;HTU21D;69198;44.694;37.790;2024-02-23T04:00:15;7.02;77.11
75190;HTU21D;69198;44.694;37.790;2024-02-23T04:01:16;7.04;77.15
75190;HTU21D;69198;44.694;37.790;2024-02-23T04:02:17;7.08;77.24
75190;HTU21D;69198;44.694;37.790;2024-02-23T04:03:18;7.11;77.30
75190;HTU21D;69198;44.694;37.790;2024-02-23T04:04:19;7.14;77.33
75190;HTU21D;69198;44.694;37.790;2024-02-23T04:05:20;7.16;77.39
75190;HTU21D;69198;44.694;37.790;2024-02-23T04:06:22;7.19;77.42
75190;HTU21D;69198;44.694;37.790;2024-02-23T04:07:23;7.23;77.49
75190;HTU21D;69198;44.694;37.790;2024-02-23T04:08:24;7.25;77.49
75190;HTU21D;69198;44.694;37.790;2024-02-23T04:09:25;7.28;77.53
75190;HTU21D;69198;44.694;37.790;2024-02-23T04:10:26;7.29;77.55
75190;HTU21D;69198;44.694;37.790;2024-02-23T04:11:27;7.31;77.56
75190;HTU21D;69198;44.694;37.790;2024-02-23T04:12:28;7.35;77.57
75190;HTU21D;69198;44.694;37.790;2024-02-23T04:13:29;7.37;77.57
75190;HTU21D;69198;44.694;37.790;2024-02-23T04:14:30;7.37;77.56
75190;HTU21D;69198;44.694;37.790;2024-02-23T04:15:31;7.38;77.58
75190;HTU21D;69198;44.694;37.790;2024-02-23T04:16:32;7.39;77.57
75190;HTU21D;69198;44.694;37.790;2024-02-23T04:17:33;7.40;77.59
75190;HTU21D;69198;44.694;37.790;2024-02-23T04:18:34;7.40;77.60
75190;HTU21D;69198;44.694;37.790;2024-02-23T04:19:35;7.39;77.65
75190;HTU21D;69198;44.694;37.790;2024-02-23T04:20:36;7.40;77.69
75190;HTU21D;69198;44.694;37.790;2024-02-23T04:21:37;7.40;77.72
75190;HTU21D;69198;44.694;37.790;2024-02-23T04:22:38;7.40;77.79
75190;HTU21D;69198;44.694;37.790;2024-02-23T04:23:39;7.40;77.81
75190;HTU21D;69198;44.694;37.790;2024-02-23T04:24:41;7.38;77.87
75190;HTU21D;69198;44.694;37.790;2024-02-23T04:25:42;7.38;77.95
75190;HTU21D;69198;44.694;37.790;2024-02-23T04:26:43;7.37;78.01
75190;HTU21D;69198;44.694;37.790;2024-02-23T04:27:44;7.37;78.08
75190;HTU21D;69198;44.694;37.790;2024-02-23T04:28:45;7.33;78.13
75190;HTU21D;69198;44.694;37.790;2024-02-23T04:29:46;7.34;78.21
75190;HTU21D;69198;44.694;37.790;2024-02-23T04:30:47;7.31;78.25
75190;HTU21D;69198;44.694;37.790;2024-02-23T04:31:48;7.31;78.30
75190;HTU21D;69198;44.694;37.790;2024-02-23T04:32:49;7.29;78.38
75190;HTU21D;69198;44.694;37.790;2024-02-23T04:33:50;7.28;78.43
75190;HTU21D;69198;44.694;37.790;2024-02-23T04:34:51;7.28;78.47
75190;HTU21D;69198;44.694;37.790;2024-02-23T04:35:52;7.27;78.56
75190;HTU21D;69198;44.694;37.790;2024-02-23T04:36:53;7.28;78.61
75190;HTU21D;69198;44.694;37.790;2024-02-23T04:37:54;7.29;78.66
75190;HTU21D;69198;44.694;37.790;2024-02-23T04:38:55;7.30;78.72
75190;HTU21D;69198;44.694;37.790;2024-02-23T04:39:56;7.32;78.75
75190;HTU21D;69198;44.694;37.790;2024-02-23T04:40:57;7.37;78.85
75190;HTU21D;69198;44.694;37.790;2024-02-23T04:41:59;7.41;78.89
75190;HTU21D;69198;44.694;37.790;2024-02-23T04:43:00;7.43;78.95
75190;HTU21D;69198;44.694;37.790;2024-02-23T04:44:01;7.45;78.99
75190;HTU21D;69198;44.694;37.790;2024-02-23T04:45:02;7.46;78.98
75190;HTU21D;69198;44.694;37.790;2024-02-23T04:46:04;7.49;79.03
75190;HTU21D;69198;44.694;37.790;2024-02-23T04:47:05;7.53;79.11
75190;HTU21D;69198;44.694;37.790;2024-02-23T04:48:07;7.54;79.14
75190;HTU21D;69198;44.694;37.790;2024-02-23T04:49:08;7.57;79.19
75190;HTU21D;69198;44.694;37.790;2024-02-23T04:50:10;7.62;79.24
75190;HTU21D;69198;44.694;37.790;2024-02-23T04:51:11;7.64;79.24
75190;HTU21D;69198;44.694;37.790;2024-02-23T04:52:12;7.68;79.29
75190;HTU21D;69198;44.694;37.790;2024-02-23T04:53:13;7.70;79.30
75190;HTU21D;69198;44.694;37.790;2024-02-23T04:54:14;7.74;79.37
75190;HTU21D;69198;44.694;37.790;2024-02-23T04:55:15;7.76;79.38
75190;HTU21D;69198;44.694;37.790;2024-02-23T04:56:16;7.79;79.34
75190;HTU21D;69198;44.694;37.790;2024-02-23T04:57:17;7.81;79.32
75190;HTU21D;69198;44.694;37.790;2024-02-23T04:58:18;7.83;79.30
75190;HTU21D;69198;44.694;37.790;2024-02-23T04:59:19;7.82;79.26
75190;HTU21D;69198;44.694;37.790;2024-02-23T05:00:20;7.82;79.25
75190;HTU21D;69198;44.694;37.790;2024-02-23T05:01:21;7.84;79.26
75190;HTU21D;69198;44.694;37.790;2024-02-23T05:02:22;7.84;79.26
75190;HTU21D;69198;44.694;37.790;2024-02-23T05:03:23;7.85;79.26
75190;HTU21D;69198;44.694;37.790;2024-02-23T05:04:24;7.86;79.23
75190;HTU21D;69198;44.694;37.790;2024-02-23T05:05:27;7.88;79.23
75190;HTU21D;69198;44.694;37.790;2024-02-23T05:06:28;7.92;79.20
75190;HTU21D;69198;44.694;37.790;2024-02-23T05:07:30;7.96;79.16
75190;HTU21D;69198;44.694;37.790;2024-02-23T05:08:32;7.99;79.07
75190;HTU21D;69198;44.694;37.790;2024-02-23T05:09:32;8.03;78.98
75190;HTU21D;69198;44.694;37.790;2024-02-23T05:10:35;8.09;79.01
75190;HTU21D;69198;44.694;37.790;2024-02-23T05:11:36;8.19;78.89
75190;HTU21D;69198;44.694;37.790;2024-02-23T05:12:37;8.28;78.77
75190;HTU21D;69198;44.694;37.790;2024-02-23T05:13:38;8.39;78.59
75190;HTU21D;69198;44.694;37.790;2024-02-23T05:14:42;8.48;78.40
75190;HTU21D;69198;44.694;37.790;2024-02-23T05:15:43;8.57;78.21
75190;HTU21D;69198;44.694;37.790;2024-02-23T05:16:44;8.63;78.03
75190;HTU21D;69198;44.694;37.790;2024-02-23T05:17:45;8.67;77.92
75190;HTU21D;69198;44.694;37.790;2024-02-23T05:18:46;8.73;77.85
75190;HTU21D;69198;44.694;37.790;2024-02-23T05:19:47;8.78;77.76
75190;HTU21D;69198;44.694;37.790;2024-02-23T05:20:48;8.82;77.68
75190;HTU21D;69198;44.694;37.790;2024-02-23T05:21:49;8.86;77.59
75190;HTU21D;69198;44.694;37.790;2024-02-23T05:22:50;8.88;77.56
75190;HTU21D;69198;44.694;37.790;2024-02-23T05:23:51;8.88;77.56
75190;HTU21D;69198;44.694;37.790;2024-02-23T05:24:52;8.91;77.54
75190;HTU21D;69198;44.694;37.790;2024-02-23T05:25:53;8.93;77.49
75190;HTU21D;69198;44.694;37.790;2024-02-23T05:26:54;8.92;77.47
75190;HTU21D;69198;44.694;37.790;2024-02-23T05:27:55;8.93;77.50
75190;HTU21D;69198;44.694;37.790;2024-02-23T05:28:57;8.93;77.50
75190;HTU21D;69198;44.694;37.790;2024-02-23T05:29:58;8.95;77.50
75190;HTU21D;69198;44.694;37.790;2024-02-23T05:30:59;9.01;77.50
75190;HTU21D;69198;44.694;37.790;2024-02-23T05:32:00;9.11;77.59
75190;HTU21D;69198;44.694;37.790;2024-02-23T05:33:01;9.27;77.49
75190;HTU21D;69198;44.694;37.790;2024-02-23T05:34:04;9.46;77.18
75190;HTU21D;69198;44.694;37.790;2024-02-23T05:35:05;9.56;76.82
75190;HTU21D;69198;44.694;37.790;2024-02-23T05:36:07;9.69;76.60
75190;HTU21D;69198;44.694;37.790;2024-02-23T05:37:08;9.80;76.44
75190;HTU21D;69198;44.694;37.790;2024-02-23T05:38:09;9.92;76.20
75190;HTU21D;69198;44.694;37.790;2024-02-23T05:39:10;9.98;75.95
75190;HTU21D;69198;44.694;37.790;2024-02-23T05:40:12;10.03;75.88
75190;HTU21D;69198;44.694;37.790;2024-02-23T05:41:13;10.07;75.80
75190;HTU21D;69198;44.694;37.790;2024-02-23T05:42:15;10.12;75.74
75190;HTU21D;69198;44.694;37.790;2024-02-23T05:43:16;10.15;75.63
75190;HTU21D;69198;44.694;37.790;2024-02-23T05:44:17;10.19;75.52
75190;HTU21D;69198;44.694;37.790;2024-02-23T05:45:18;10.21;75.58
75190;HTU21D;69198;44.694;37.790;2024-02-23T05:46:19;10.57;76.24
75190;HTU21D;69198;44.694;37.790;2024-02-23T05:47:21;11.28;75.58
75190;HTU21D;69198;44.694;37.790;2024-02-23T05:48:22;12.11;74.19
75190;HTU21D;69198;44.694;37.790;2024-02-23T05:49:23;12.91;72.51
75190;HTU21D;69198;44.694;37.790;2024-02-23T05:50:24;13.61;70.87
75190;HTU21D;69198;44.694;37.790;2024-02-23T05:51:26;14.12;69.67
75190;HTU21D;69198;44.694;37.790;2024-02-23T05:52:27;14.44;68.46
75190;HTU21D;69198;44.694;37.790;2024-02-23T05:53:28;14.65;67.94
75190;HTU21D;69198;44.694;37.790;2024-02-23T05:54:33;14.95;67.49
75190;HTU21D;69198;44.694;37.790;2024-02-23T05:55:34;15.31;66.66
75190;HTU21D;69198;44.694;37.790;2024-02-23T05:56:35;15.48;65.78
75190;HTU21D;69198;44.694;37.790;2024-02-23T05:57:36;15.45;65.31
75190;HTU21D;69198;44.694;37.790;2024-02-23T05:58:37;15.29;65.21
75190;HTU21D;69198;44.694;37.790;2024-02-23T05:59:39;15.31;65.69
75190;HTU21D;69198;44.694;37.790;2024-02-23T06:00:40;15.60;64.94
75190;HTU21D;69198;44.694;37.790;2024-02-23T06:01:41;15.63;63.79
75190;HTU21D;69198;44.694;37.790;2024-02-23T06:02:42;15.44;63.48
75190;HTU21D;69198;44.694;37.790;2024-02-23T06:03:43;15.12;63.64
75190;HTU21D;69198;44.694;37.790;2024-02-23T06:04:45;14.84;64.04
75190;HTU21D;69198;44.694;37.790;2024-02-23T06:05:46;14.54;64.37
75190;HTU21D;69198;44.694;37.790;2024-02-23T06:06:47;14.21;64.67
75190;HTU21D;69198;44.694;37.790;2024-02-23T06:07:48;13.92;64.94
75190;HTU21D;69198;44.694;37.790;2024-02-23T06:08:49;13.64;65.11
75190;HTU21D;69198;44.694;37.790;2024-02-23T06:09:51;13.34;65.24
75190;HTU21D;69198;44.694;37.790;2024-02-23T06:10:52;13.06;65.41
75190;HTU21D;69198;44.694;37.790;2024-02-23T06:11:53;12.79;65.65
75190;HTU21D;69198;44.694;37.790;2024-02-23T06:12:54;12.57;65.88
75190;HTU21D;69198;44.694;37.790;2024-02-23T06:13:56;12.37;66.17
75190;HTU21D;69198;44.694;37.790;2024-02-23T06:14:57;12.20;66.43
75190;HTU21D;69198;44.694;37.790;2024-02-23T06:15:59;12.04;66.67
75190;HTU21D;69198;44.694;37.790;2024-02-23T06:17:01;11.90;66.89
75190;HTU21D;69198;44.694;37.790;2024-02-23T06:18:02;11.74;67.07
75190;HTU21D;69198;44.694;37.790;2024-02-23T06:19:03;11.58;67.46
75190;HTU21D;69198;44.694;37.790;2024-02-23T06:20:04;11.47;67.80
75190;HTU21D;69198;44.694;37.790;2024-02-23T06:21:15;11.52;68.05